createdAt,value
2024-04-18T00:00:39.287Z,94277.00
2024-04-18T00:01:39.218Z,94277.00
2024-04-18T00:02:39.254Z,94276.00
2024-04-18T00:03:39.402Z,94276.00
2024-04-18T00:04:39.363Z,94277.00
2024-04-18T00:05:39.350Z,94276.00
2024-04-18T00:06:39.394Z,94275.00
2024-04-18T00:07:39.397Z,94275.00
2024-04-18T00:08:39.421Z,94276.00
2024-04-18T00:09:39.415Z,94275.00
2024-04-18T00:10:39.506Z,94274.00
2024-04-18T00:11:39.462Z,94273.00
2024-04-18T00:12:39.582Z,94272.00
2024-04-18T00:13:39.512Z,94271.00
2024-04-18T00:14:39.558Z,94272.00
2024-04-18T00:15:39.588Z,94270.00
2024-04-18T00:16:39.609Z,94269.00
2024-04-18T00:17:39.701Z,94270.00
2024-04-18T00:18:40.642Z,94269.00
2024-04-18T00:19:39.655Z,94268.00
2024-04-18T00:20:39.688Z,94265.00
2024-04-18T00:21:39.719Z,94267.00
2024-04-18T00:22:40.488Z,94265.00
2024-04-18T00:23:39.761Z,94263.00
2024-04-18T00:24:39.816Z,94263.00
2024-04-18T00:25:40.019Z,94262.00
2024-04-18T00:26:39.875Z,94262.00
2024-04-18T00:27:39.949Z,94266.00
2024-04-18T00:28:39.919Z,94263.00
2024-04-18T00:29:39.940Z,94262.00
2024-04-18T00:30:40.070Z,94263.00
2024-04-18T00:31:40.021Z,94260.00
2024-04-18T00:32:40.011Z,94258.00
2024-04-18T00:33:40.079Z,94259.00
2024-04-18T00:34:40.103Z,94259.00
2024-04-18T00:35:40.102Z,94257.00
2024-04-18T00:36:40.210Z,94260.00
2024-04-18T00:37:40.193Z,94260.00
2024-04-18T00:38:40.198Z,94259.00
2024-04-18T00:39:40.229Z,94258.00
2024-04-18T00:40:40.518Z,94257.00
2024-04-18T00:41:40.269Z,94257.00
2024-04-18T00:42:40.388Z,94257.00
2024-04-18T00:43:40.337Z,94257.00
2024-04-18T00:44:40.352Z,94257.00
2024-04-18T00:45:40.418Z,94258.00
2024-04-18T00:46:40.441Z,94260.00
2024-04-18T00:47:40.524Z,94259.00
2024-04-18T00:48:40.563Z,94258.00
2024-04-18T00:49:40.522Z,94257.00
2024-04-18T00:50:40.573Z,94257.00
2024-04-18T00:51:40.671Z,94257.00
2024-04-18T00:52:40.647Z,94257.00
2024-04-18T00:53:40.663Z,94258.00
2024-04-18T00:54:40.852Z,94259.00
2024-04-18T00:55:41.038Z,94258.00
2024-04-18T00:56:40.763Z,94259.00
2024-04-18T00:57:40.949Z,94261.00
2024-04-18T00:58:40.828Z,94261.00
2024-04-18T00:59:40.869Z,94261.00
2024-04-18T01:00:41.065Z,94261.00
2024-04-18T01:01:40.971Z,94262.00
2024-04-18T01:02:40.995Z,94261.00
2024-04-18T01:03:41.173Z,94261.00
2024-04-18T01:04:41.133Z,94261.00
2024-04-18T01:05:41.530Z,94262.00
2024-04-18T01:06:41.141Z,94260.00
2024-04-18T01:07:41.197Z,94262.00
2024-04-18T01:08:41.205Z,94262.00
2024-04-18T01:09:41.255Z,94263.00
2024-04-18T01:10:41.271Z,94265.00
2024-04-18T01:11:41.295Z,94263.00
2024-04-18T01:12:41.393Z,94262.00
2024-04-18T01:13:41.334Z,94264.00
2024-04-18T01:14:41.384Z,94263.00
2024-04-18T01:15:41.558Z,94264.00
2024-04-18T01:16:41.460Z,94265.00
2024-04-18T01:17:41.582Z,94264.00
2024-04-18T01:18:41.548Z,94265.00
2024-04-18T01:19:41.548Z,94264.00
2024-04-18T01:20:42.041Z,94265.00
2024-04-18T01:21:41.720Z,94265.00
2024-04-18T01:22:41.652Z,94266.00
2024-04-18T01:23:41.703Z,94267.00
2024-04-18T01:24:41.747Z,94266.00
2024-04-18T01:25:42.078Z,94265.00
2024-04-18T01:26:41.802Z,94263.00
2024-04-18T01:27:41.895Z,94265.00
2024-04-18T01:28:41.847Z,94266.00
2024-04-18T01:29:41.889Z,94264.00
2024-04-18T01:30:42.028Z,94268.00
2024-04-18T01:31:41.977Z,94266.00
2024-04-18T01:32:42.186Z,94266.00
2024-04-18T01:33:42.139Z,94266.00
2024-04-18T01:34:42.072Z,94264.00
2024-04-18T01:35:42.174Z,94263.00
2024-04-18T01:36:42.252Z,94262.00
2024-04-18T01:37:42.190Z,94262.00
2024-04-18T01:38:42.262Z,94263.00
2024-04-18T01:39:42.414Z,94263.00
2024-04-18T01:40:42.309Z,94262.00
2024-04-18T01:41:42.337Z,94263.00
2024-04-18T01:42:42.436Z,94261.00
2024-04-18T01:43:42.388Z,94261.00
2024-04-18T01:44:42.462Z,94259.00
2024-04-18T01:45:42.550Z,94260.00
2024-04-18T01:46:42.509Z,94259.00
2024-04-18T01:47:42.637Z,94257.00
2024-04-18T01:48:42.762Z,94256.00
2024-04-18T01:49:42.607Z,94255.00
2024-04-18T01:50:42.665Z,94256.00
2024-04-18T01:51:42.804Z,94256.00
2024-04-18T01:52:42.762Z,94256.00
2024-04-18T01:53:42.796Z,94256.00
2024-04-18T01:54:42.900Z,94257.00
2024-04-18T01:55:42.861Z,94256.00
2024-04-18T01:56:42.864Z,94258.00
2024-04-18T01:57:42.978Z,94257.00
2024-04-18T01:58:42.957Z,94256.00
2024-04-18T01:59:42.972Z,94258.00
2024-04-18T02:00:43.079Z,94258.00
2024-04-18T02:01:43.091Z,94258.00
2024-04-18T02:02:43.082Z,94258.00
2024-04-18T02:03:43.247Z,94259.00
2024-04-18T02:04:43.224Z,94258.00
2024-04-18T02:05:43.215Z,94258.00
2024-04-18T02:06:43.278Z,94258.00
2024-04-18T02:07:43.302Z,94256.00
2024-04-18T02:08:43.327Z,94256.00
2024-04-18T02:09:43.502Z,94255.00
2024-04-18T02:10:43.450Z,94253.00
2024-04-18T02:11:43.421Z,94255.00
2024-04-18T02:12:43.544Z,94252.00
2024-04-18T02:13:43.508Z,94256.00
2024-04-18T02:14:43.543Z,94255.00
2024-04-18T02:15:43.674Z,94255.00
2024-04-18T02:16:43.607Z,94256.00
2024-04-18T02:17:43.720Z,94256.00
2024-04-18T02:18:43.731Z,94254.00
2024-04-18T02:19:43.721Z,94255.00
2024-04-18T02:20:43.790Z,94254.00
2024-04-18T02:21:43.822Z,94256.00
2024-04-18T02:22:43.931Z,94256.00
2024-04-18T02:23:43.898Z,94256.00
2024-04-18T02:24:44.030Z,94255.00
2024-04-18T02:25:44.070Z,94256.00
2024-04-18T02:26:44.035Z,94256.00
2024-04-18T02:27:44.278Z,94256.00
2024-04-18T02:28:44.174Z,94257.00
2024-04-18T02:29:44.158Z,94255.00
2024-04-18T02:30:44.191Z,94255.00
2024-04-18T02:31:44.240Z,94255.00
2024-04-18T02:32:44.276Z,94256.00
2024-04-18T02:33:44.376Z,94256.00
2024-04-18T02:34:44.328Z,94260.00
2024-04-18T02:35:44.514Z,94258.00
2024-04-18T02:36:44.612Z,94259.00
2024-04-18T02:37:44.554Z,94260.00
2024-04-18T02:38:44.568Z,94258.00
2024-04-18T02:39:44.688Z,94258.00
2024-04-18T02:40:45.091Z,94259.00
2024-04-18T02:41:44.669Z,94260.00
2024-04-18T02:42:44.788Z,94261.00
2024-04-18T02:43:44.740Z,94261.00
2024-04-18T02:44:44.814Z,94262.00
2024-04-18T02:45:44.964Z,94265.00
2024-04-18T02:46:44.897Z,94265.00
2024-04-18T02:47:44.978Z,94265.00
2024-04-18T02:48:45.004Z,94265.00
2024-04-18T02:49:45.021Z,94266.00
2024-04-18T02:50:45.061Z,94264.00
2024-04-18T02:51:45.096Z,94261.00
2024-04-18T02:52:45.106Z,94262.00
2024-04-18T02:53:45.187Z,94263.00
2024-04-18T02:54:45.616Z,94264.00
2024-04-18T02:55:45.256Z,94263.00
2024-04-18T02:56:45.353Z,94263.00
2024-04-18T02:57:45.372Z,94265.00
2024-04-18T02:58:45.352Z,94267.00
2024-04-18T02:59:45.395Z,94266.00
2024-04-18T03:00:45.492Z,94267.00
2024-04-18T03:01:45.502Z,94266.00
2024-04-18T03:02:45.677Z,94267.00
2024-04-18T03:03:45.822Z,94265.00
2024-04-18T03:04:46.581Z,94267.00
2024-04-18T03:05:45.646Z,94265.00
2024-04-18T03:06:45.748Z,94265.00
2024-04-18T03:07:45.759Z,94266.00
2024-04-18T03:08:45.766Z,94267.00
2024-04-18T03:09:45.794Z,94266.00
2024-04-18T03:10:46.091Z,94266.00
2024-04-18T03:11:45.909Z,94266.00
2024-04-18T03:12:45.990Z,94266.00
2024-04-18T03:13:45.982Z,94266.00
2024-04-18T03:14:46.076Z,94266.00
2024-04-18T03:15:46.205Z,94265.00
2024-04-18T03:16:46.130Z,94267.00
2024-04-18T03:17:48.788Z,94265.00
2024-04-18T03:18:46.222Z,94266.00
2024-04-18T03:19:46.166Z,94264.00
2024-04-18T03:20:46.216Z,94267.00
2024-04-18T03:21:46.198Z,94269.00
2024-04-18T03:22:46.187Z,94268.00
2024-04-18T03:23:46.193Z,94267.00
2024-04-18T03:24:46.329Z,94268.00
2024-04-18T03:25:46.617Z,94268.00
2024-04-18T03:26:46.193Z,94271.00
2024-04-18T03:27:46.274Z,94270.00
2024-04-18T03:28:49.129Z,94270.00
2024-04-18T03:29:46.196Z,94273.00
2024-04-18T03:30:46.663Z,94270.00
2024-04-18T03:31:46.184Z,94271.00
2024-04-18T03:32:46.262Z,94272.00
2024-04-18T03:33:46.216Z,94273.00
2024-04-18T03:34:46.203Z,94274.00
2024-04-18T03:35:46.231Z,94274.00
2024-04-18T03:36:46.223Z,94276.00
2024-04-18T03:37:46.214Z,94275.00
2024-04-18T03:38:46.211Z,94276.00
2024-04-18T03:39:46.317Z,94276.00
2024-04-18T03:40:46.216Z,94278.00
2024-04-18T03:41:46.194Z,94277.00
2024-04-18T03:42:46.388Z,94277.00
2024-04-18T03:43:46.176Z,94276.00
2024-04-18T03:44:46.187Z,94278.00
2024-04-18T03:45:46.226Z,94279.00
2024-04-18T03:46:46.228Z,94278.00
2024-04-18T03:47:46.354Z,94277.00
2024-04-18T03:48:46.228Z,94277.00
2024-04-18T03:49:46.220Z,94280.00
2024-04-18T03:50:46.201Z,94280.00
2024-04-18T03:51:46.242Z,94280.00
2024-04-18T03:52:46.217Z,94280.00
2024-04-18T03:53:46.210Z,94281.00
2024-04-18T03:54:56.240Z,94281.00
2024-04-18T03:55:47.233Z,94281.00
2024-04-18T03:56:46.218Z,94283.00
2024-04-18T03:57:46.293Z,94282.00
2024-04-18T03:58:46.232Z,94283.00
2024-04-18T03:59:46.234Z,94283.00
2024-04-18T04:00:46.315Z,94284.00
2024-04-18T04:01:46.280Z,94284.00
2024-04-18T04:02:46.212Z,94285.00
2024-04-18T04:03:46.266Z,94285.00
2024-04-18T04:04:46.230Z,94285.00
2024-04-18T04:05:46.274Z,94287.00
2024-04-18T04:06:46.637Z,94286.00
2024-04-18T04:07:46.320Z,94287.00
2024-04-18T04:08:46.416Z,94287.00
2024-04-18T04:09:46.512Z,94286.00
2024-04-18T04:10:46.481Z,94288.00
2024-04-18T04:11:46.524Z,94287.00
2024-04-18T04:12:46.712Z,94289.00
2024-04-18T04:13:46.652Z,94290.00
2024-04-18T04:14:46.734Z,94290.00
2024-04-18T04:15:46.823Z,94291.00
2024-04-18T04:16:47.171Z,94289.00
2024-04-18T04:17:46.950Z,94289.00
2024-04-18T04:18:46.970Z,94294.00
2024-04-18T04:19:46.903Z,94292.00
2024-04-18T04:20:46.986Z,94296.00
2024-04-18T04:21:47.101Z,94296.00
2024-04-18T04:22:47.611Z,94299.00
2024-04-18T04:23:47.136Z,94299.00
2024-04-18T04:24:47.157Z,94301.00
2024-04-18T04:25:47.250Z,94302.00
2024-04-18T04:26:47.303Z,94303.00
2024-04-18T04:27:47.527Z,94304.00
2024-04-18T04:28:47.378Z,94305.00
2024-04-18T04:29:48.111Z,94305.00
2024-04-18T04:30:47.603Z,94307.00
2024-04-18T04:31:47.682Z,94306.00
2024-04-18T04:32:47.600Z,94307.00
2024-04-18T04:33:47.693Z,94307.00
2024-04-18T04:34:47.706Z,94307.00
2024-04-18T04:35:47.711Z,94309.00
2024-04-18T04:36:48.703Z,94310.00
2024-04-18T04:37:47.819Z,94311.00
2024-04-18T04:38:47.932Z,94310.00
2024-04-18T04:39:48.001Z,94313.00
2024-04-18T04:40:47.979Z,94313.00
2024-04-18T04:41:48.055Z,94315.00
2024-04-18T04:42:48.864Z,94315.00
2024-04-18T04:43:48.167Z,94315.00
2024-04-18T04:44:55.485Z,94316.00
2024-04-18T04:45:55.563Z,94314.00
2024-04-18T04:46:55.468Z,94315.00
2024-04-18T04:47:55.547Z,94315.00
2024-04-18T04:48:55.528Z,94316.00
2024-04-18T04:49:55.486Z,94318.00
2024-04-18T04:50:55.583Z,94319.00
2024-04-18T04:51:55.501Z,94320.00
2024-04-18T04:52:55.507Z,94320.00
2024-04-18T04:53:55.517Z,94321.00
2024-04-18T04:54:55.520Z,94321.00
2024-04-18T04:55:55.527Z,94325.00
2024-04-18T04:56:55.495Z,94325.00
2024-04-18T04:57:55.512Z,94327.00
2024-04-18T04:58:55.558Z,94326.00
2024-04-18T04:59:55.487Z,94330.00
2024-04-18T05:00:55.784Z,94333.00
2024-04-18T05:01:55.528Z,94330.00
2024-04-18T05:02:55.517Z,94332.00
2024-04-18T05:03:55.571Z,94332.00
2024-04-18T05:04:55.527Z,94335.00
2024-04-18T05:05:55.540Z,94338.00
2024-04-18T05:06:55.664Z,94337.00
2024-04-18T05:07:55.806Z,94339.00
2024-04-18T05:08:55.507Z,94341.00
2024-04-18T05:09:55.547Z,94339.00
2024-04-18T05:10:55.587Z,94343.00
2024-04-18T05:11:56.080Z,94345.00
2024-04-18T05:12:55.724Z,94343.00
2024-04-18T05:13:55.750Z,94347.00
2024-04-18T05:14:55.760Z,94348.00
2024-04-18T05:15:56.002Z,94350.00
2024-04-18T05:16:55.934Z,94352.00
2024-04-18T05:17:55.961Z,94351.00
2024-04-18T05:18:56.053Z,94352.00
2024-04-18T05:19:56.097Z,94351.00
2024-04-18T05:20:56.136Z,94354.00
2024-04-18T05:21:56.267Z,94351.00
2024-04-18T05:22:56.261Z,94356.00
2024-04-18T05:23:56.332Z,94357.00
2024-04-18T05:24:56.366Z,94357.00
2024-04-18T05:25:56.462Z,94357.00
2024-04-18T05:26:56.511Z,94358.00
2024-04-18T05:27:56.593Z,94362.00
2024-04-18T05:28:56.618Z,94360.00
2024-04-18T05:29:56.680Z,94359.00
2024-04-18T05:30:56.837Z,94360.00
2024-04-18T05:31:56.818Z,94362.00
2024-04-18T05:32:56.895Z,94363.00
2024-04-18T05:33:57.652Z,94363.00
2024-04-18T05:34:56.964Z,94362.00
2024-04-18T05:35:57.651Z,94366.00
2024-04-18T05:36:57.057Z,94366.00
2024-04-18T05:37:57.112Z,94368.00
2024-04-18T05:38:57.195Z,94370.00
2024-04-18T05:39:57.351Z,94370.00
2024-04-18T05:40:57.321Z,94370.00
2024-04-18T05:41:57.337Z,94370.00
2024-04-18T05:42:57.505Z,94372.00
2024-04-18T05:43:57.511Z,94374.00
2024-04-18T05:44:57.517Z,94374.00
2024-04-18T05:45:57.672Z,94374.00
2024-04-18T05:46:57.678Z,94378.00
2024-04-18T05:47:57.766Z,94379.00
2024-04-18T05:48:57.930Z,94380.00
2024-04-18T05:49:57.862Z,94380.00
2024-04-18T05:50:57.867Z,94381.00
2024-04-18T05:51:57.997Z,94379.00
2024-04-18T05:52:58.005Z,94383.00
2024-04-18T05:53:58.077Z,94384.00
2024-04-18T05:54:58.184Z,94385.00
2024-04-18T05:55:58.194Z,94384.00
2024-04-18T05:56:58.204Z,94388.00
2024-04-18T05:57:58.289Z,94389.00
2024-04-18T05:58:58.312Z,94392.00
2024-04-18T05:59:58.377Z,94393.00
2024-04-18T06:00:58.482Z,94401.00
2024-04-18T06:01:58.552Z,94395.00
2024-04-18T06:02:58.673Z,94397.00
2024-04-18T06:03:58.760Z,94399.00
2024-04-18T06:04:58.668Z,94399.00
2024-04-18T06:05:58.739Z,94401.00
2024-04-18T06:06:58.766Z,94402.00
2024-04-18T06:07:58.799Z,94401.00
2024-04-18T06:08:58.835Z,94401.00
2024-04-18T06:09:58.888Z,94403.00
2024-04-18T06:10:58.933Z,94404.00
2024-04-18T06:11:58.962Z,94405.00
2024-04-18T06:12:58.975Z,94407.00
2024-04-18T06:13:59.040Z,94405.00
2024-04-18T06:14:59.072Z,94405.00
2024-04-18T06:15:59.204Z,94407.00
2024-04-18T06:16:59.146Z,94407.00
2024-04-18T06:17:59.177Z,94407.00
2024-04-18T06:18:59.271Z,94406.00
2024-04-18T06:19:59.236Z,94408.00
2024-04-18T06:20:59.288Z,94408.00
2024-04-18T06:21:59.704Z,94407.00
2024-04-18T06:22:59.325Z,94408.00
2024-04-18T06:23:59.424Z,94410.00
2024-04-18T06:24:59.633Z,94409.00
2024-04-18T06:25:59.467Z,94409.00
2024-04-18T06:26:59.636Z,94409.00
2024-04-18T06:27:59.525Z,94410.00
2024-04-18T06:28:59.504Z,94412.00
2024-04-18T06:29:59.506Z,94413.00
2024-04-18T06:30:59.623Z,94411.00
2024-04-18T06:31:59.666Z,94414.00
2024-04-18T06:32:59.689Z,94414.00
2024-04-18T06:33:59.735Z,94415.00
2024-04-18T06:34:59.644Z,94416.00
2024-04-18T06:35:59.635Z,94415.00
2024-04-18T06:36:59.787Z,94415.00
2024-04-18T06:37:59.705Z,94417.00
2024-04-18T06:38:59.716Z,94416.00
2024-04-18T06:39:59.760Z,94420.00
2024-04-18T06:40:59.799Z,94421.00
2024-04-18T06:42:00.171Z,94423.00
2024-04-18T06:42:59.812Z,94423.00
2024-04-18T06:43:59.799Z,94426.00
2024-04-18T06:44:59.838Z,94425.00
2024-04-18T06:45:59.888Z,94427.00
2024-04-18T06:47:02.365Z,94427.00
2024-04-18T06:47:59.956Z,94428.00
2024-04-18T06:48:59.904Z,94429.00
2024-04-18T06:49:59.845Z,94431.00
2024-04-18T06:50:59.849Z,94432.00
2024-04-18T06:51:59.963Z,94433.00
2024-04-18T06:52:59.901Z,94436.00
2024-04-18T06:53:59.967Z,94433.00
2024-04-18T06:55:00.133Z,94433.00
2024-04-18T06:55:59.908Z,94436.00
2024-04-18T06:57:00.152Z,94437.00
2024-04-18T06:57:59.956Z,94438.00
2024-04-18T06:58:59.873Z,94439.00
2024-04-18T06:59:59.889Z,94439.00
2024-04-18T07:00:59.993Z,94439.00
2024-04-18T07:02:00.016Z,94440.00
2024-04-18T07:02:59.916Z,94442.00
2024-04-18T07:03:59.981Z,94441.00
2024-04-18T07:05:00.015Z,94441.00
2024-04-18T07:05:59.935Z,94442.00
2024-04-18T07:07:00.302Z,94441.00
2024-04-18T07:07:59.896Z,94441.00
2024-04-18T07:08:59.886Z,94439.00
2024-04-18T07:09:59.927Z,94439.00
2024-04-18T07:11:00.006Z,94439.00
2024-04-18T07:12:00.178Z,94441.00
2024-04-18T07:12:59.946Z,94440.00
2024-04-18T07:13:59.896Z,94441.00
2024-04-18T07:14:59.934Z,94442.00
2024-04-18T07:15:59.947Z,94442.00
2024-04-18T07:17:02.852Z,94442.00
2024-04-18T07:17:59.967Z,94443.00
2024-04-18T07:18:59.920Z,94443.00
2024-04-18T07:19:59.909Z,94443.00
2024-04-18T07:20:59.912Z,94446.00
2024-04-18T07:21:59.950Z,94447.00
2024-04-18T07:22:59.935Z,94448.00
2024-04-18T07:24:01.967Z,94446.00
2024-04-18T07:24:59.954Z,94448.00
2024-04-18T07:25:59.943Z,94449.00
2024-04-18T07:26:59.975Z,94452.00
2024-04-18T07:28:00.141Z,94450.00
2024-04-18T07:29:00.156Z,94449.00
2024-04-18T07:30:00.193Z,94455.00
2024-04-18T07:31:00.355Z,94453.00
2024-04-18T07:32:01.170Z,94455.00
2024-04-18T07:33:00.376Z,94459.00
2024-04-18T07:34:00.620Z,94458.00
2024-04-18T07:35:00.477Z,94460.00
2024-04-18T07:36:00.509Z,94463.00
2024-04-18T07:37:00.702Z,94463.00
2024-04-18T07:38:00.649Z,94464.00
2024-04-18T07:39:00.689Z,94463.00
2024-04-18T07:40:00.803Z,94464.00
2024-04-18T07:41:00.816Z,94466.00
2024-04-18T07:42:01.207Z,94465.00
2024-04-18T07:43:00.976Z,94469.00
2024-04-18T07:44:01.014Z,94468.00
2024-04-18T07:45:01.125Z,94467.00
2024-04-18T07:46:01.163Z,94467.00
2024-04-18T07:47:01.648Z,94468.00
2024-04-18T07:48:01.361Z,94473.00
2024-04-18T07:49:01.389Z,94469.00
2024-04-18T07:50:01.545Z,94474.00
2024-04-18T07:51:01.506Z,94474.00
2024-04-18T07:53:09.234Z,94475.00
2024-04-18T07:54:02.624Z,94474.00
2024-04-18T07:55:03.579Z,94471.00
2024-04-18T07:56:01.960Z,94473.00
2024-04-18T07:57:02.470Z,94474.00
2024-04-18T07:58:02.095Z,94479.00
2024-04-18T07:59:02.497Z,94479.00
2024-04-18T08:00:02.471Z,94480.00
2024-04-18T08:01:02.641Z,94483.00
2024-04-18T08:02:03.413Z,94481.00
2024-04-18T08:03:04.043Z,94483.00
2024-04-18T08:04:17.483Z,94482.00
2024-04-18T08:05:04.584Z,94482.00
2024-04-18T08:06:04.199Z,94481.00
2024-04-18T08:07:04.243Z,94482.00
2024-04-18T08:08:04.396Z,94482.00
2024-04-18T08:09:04.495Z,94483.00
2024-04-18T08:10:05.945Z,94484.00
2024-04-18T08:13:05.265Z,94488.00
2024-04-18T08:14:06.888Z,94490.00
2024-04-18T08:15:07.516Z,94491.00
2024-04-18T08:16:02.963Z,94493.00
2024-04-18T08:17:01.844Z,94491.00
2024-04-18T08:18:01.816Z,94494.00
2024-04-18T08:19:01.839Z,94494.00
2024-04-18T08:20:01.831Z,94497.00
2024-04-18T08:21:01.863Z,94498.00
2024-04-18T08:22:04.444Z,94496.00
2024-04-18T08:23:02.040Z,94500.00
2024-04-18T08:24:01.835Z,94496.00
2024-04-18T08:25:01.800Z,94498.00
2024-04-18T08:26:01.809Z,94499.00
2024-04-18T08:27:02.201Z,94500.00
2024-04-18T08:28:01.796Z,94501.00
2024-04-18T08:29:02.293Z,94503.00
2024-04-18T08:30:01.851Z,94503.00
2024-04-18T08:31:01.833Z,94506.00
2024-04-18T08:32:02.249Z,94505.00
2024-04-18T08:33:01.906Z,94506.00
2024-04-18T08:34:07.856Z,94508.00
2024-04-18T08:35:02.892Z,94510.00
2024-04-18T08:36:01.859Z,94509.00
2024-04-18T08:37:02.217Z,94512.00
2024-04-18T08:38:01.842Z,94514.00
2024-04-18T08:39:01.879Z,94509.00
2024-04-18T08:40:01.857Z,94511.00
2024-04-18T08:41:01.836Z,94510.00
2024-04-18T08:42:02.236Z,94511.00
2024-04-18T08:43:01.824Z,94510.00
2024-04-18T08:44:05.806Z,94510.00
2024-04-18T08:45:01.940Z,94510.00
2024-04-18T08:46:01.941Z,94511.00
2024-04-18T08:47:02.185Z,94511.00
2024-04-18T08:48:03.851Z,94512.00
2024-04-18T08:49:01.986Z,94511.00
2024-04-18T08:50:01.929Z,94512.00
2024-04-18T08:51:01.976Z,94512.00
2024-04-18T08:52:02.224Z,94515.00
2024-04-18T08:53:01.949Z,94517.00
2024-04-18T08:54:01.957Z,94516.00
2024-04-18T08:55:01.943Z,94518.00
2024-04-18T08:56:01.931Z,94518.00
2024-04-18T08:57:02.237Z,94518.00
2024-04-18T08:58:01.924Z,94520.00
2024-04-18T08:59:01.938Z,94522.00
2024-04-18T09:00:01.969Z,94524.00
2024-04-18T09:01:01.990Z,94526.00
2024-04-18T09:02:02.259Z,94528.00
2024-04-18T09:03:02.016Z,94527.00
2024-04-18T09:04:01.956Z,94526.00
2024-04-18T09:05:02.022Z,94525.00
2024-04-18T09:06:02.007Z,94527.00
2024-04-18T09:07:02.197Z,94527.00
2024-04-18T09:08:01.953Z,94526.00
2024-04-18T09:09:01.993Z,94526.00
2024-04-18T09:10:01.985Z,94524.00
2024-04-18T09:11:01.994Z,94522.00
2024-04-18T09:12:03.558Z,94522.00
2024-04-18T09:13:06.658Z,94521.00
2024-04-18T09:14:03.081Z,94517.00
2024-04-18T09:15:02.075Z,94518.00
2024-04-18T09:16:02.050Z,94517.00
2024-04-18T09:17:02.082Z,94518.00
2024-04-18T09:18:02.281Z,94515.00
2024-04-18T09:19:02.056Z,94516.00
2024-04-18T09:20:02.058Z,94516.00
2024-04-18T09:21:02.071Z,94519.00
2024-04-18T09:22:02.230Z,94517.00
2024-04-18T09:23:02.061Z,94519.00
2024-04-18T09:24:02.135Z,94521.00
2024-04-18T09:25:02.074Z,94522.00
2024-04-18T09:26:02.071Z,94523.00
2024-04-18T09:27:02.305Z,94528.00
2024-04-18T09:28:02.099Z,94526.00
2024-04-18T09:29:02.118Z,94527.00
2024-04-18T09:30:02.191Z,94527.00
2024-04-18T09:31:03.835Z,94530.00
2024-04-18T09:32:02.238Z,94527.00
2024-04-18T09:33:05.277Z,94525.00
2024-04-18T09:34:03.277Z,94527.00
2024-04-18T09:35:02.203Z,94526.00
2024-04-18T09:36:02.865Z,94522.00
2024-04-18T09:37:02.214Z,94519.00
2024-04-18T09:38:08.468Z,94521.00
2024-04-18T09:39:03.347Z,94522.00
2024-04-18T09:40:02.171Z,94522.00
2024-04-18T09:41:02.196Z,94522.00
2024-04-18T09:42:02.277Z,94525.00
2024-04-18T09:43:02.208Z,94525.00
2024-04-18T09:44:02.197Z,94523.00
2024-04-18T09:45:02.261Z,94522.00
2024-04-18T09:46:02.219Z,94525.00
2024-04-18T09:47:02.226Z,94526.00
2024-04-18T09:48:02.425Z,94529.00
2024-04-18T09:49:02.374Z,94528.00
2024-04-18T09:50:02.245Z,94527.00
2024-04-18T09:51:02.253Z,94527.00
2024-04-18T09:52:02.771Z,94528.00
2024-04-18T09:53:02.368Z,94525.00
2024-04-18T09:54:02.471Z,94524.00
2024-04-18T09:55:02.494Z,94524.00
2024-04-18T09:56:02.581Z,94524.00
2024-04-18T09:57:02.763Z,94524.00
2024-04-18T09:58:02.662Z,94524.00
2024-04-18T09:59:02.784Z,94524.00
2024-04-18T10:00:02.881Z,94524.00
2024-04-18T10:01:02.866Z,94523.00
2024-04-18T10:02:04.478Z,94522.00
2024-04-18T10:03:02.967Z,94524.00
2024-04-18T10:04:02.931Z,94525.00
2024-04-18T10:05:03.751Z,94520.00
2024-04-18T10:06:02.918Z,94522.00
2024-04-18T10:07:03.246Z,94521.00
2024-04-18T10:08:02.995Z,94519.00
2024-04-18T10:09:03.107Z,94522.00
2024-04-18T10:10:03.095Z,94522.00
2024-04-18T10:11:03.200Z,94526.00
2024-04-18T10:12:03.314Z,94525.00
2024-04-18T10:13:03.299Z,94524.00
2024-04-18T10:14:03.339Z,94525.00
2024-04-18T10:15:04.289Z,94525.00
2024-04-18T10:16:03.438Z,94526.00
2024-04-18T10:17:03.760Z,94522.00
2024-04-18T10:18:03.601Z,94520.00
2024-04-18T10:19:03.622Z,94523.00
2024-04-18T10:20:03.540Z,94520.00
2024-04-18T10:21:03.574Z,94517.00
2024-04-18T10:22:17.072Z,94520.00
2024-04-18T10:23:04.681Z,94517.00
2024-04-18T10:24:03.649Z,94515.00
2024-04-18T10:25:03.584Z,94516.00
2024-04-18T10:26:03.588Z,94518.00
2024-04-18T10:27:03.865Z,94522.00
2024-04-18T10:28:03.627Z,94519.00
2024-04-18T10:29:03.603Z,94523.00
2024-04-18T10:30:03.711Z,94522.00
2024-04-18T10:31:03.608Z,94522.00
2024-04-18T10:32:03.780Z,94523.00
2024-04-18T10:33:03.755Z,94523.00
2024-04-18T10:34:03.675Z,94523.00
2024-04-18T10:35:03.596Z,94520.00
2024-04-18T10:36:03.643Z,94520.00
2024-04-18T10:37:03.799Z,94520.00
2024-04-18T10:38:03.659Z,94520.00
2024-04-18T10:39:03.711Z,94521.00
2024-04-18T10:40:03.618Z,94517.00
2024-04-18T10:41:03.741Z,94525.00
2024-04-18T10:42:03.817Z,94519.00
2024-04-18T10:43:03.630Z,94522.00
2024-04-18T10:44:03.708Z,94523.00
2024-04-18T10:45:03.768Z,94520.00
2024-04-18T10:46:03.757Z,94521.00
2024-04-18T10:47:04.280Z,94520.00
2024-04-18T10:48:03.919Z,94519.00
2024-04-18T10:49:04.011Z,94521.00
2024-04-18T10:50:03.891Z,94515.00
2024-04-18T10:51:03.984Z,94520.00
2024-04-18T10:52:04.253Z,94515.00
2024-04-18T10:53:04.007Z,94517.00
2024-04-18T10:54:04.096Z,94520.00
2024-04-18T10:55:04.124Z,94521.00
2024-04-18T10:56:04.177Z,94521.00
2024-04-18T10:57:04.256Z,94521.00
2024-04-18T10:58:04.314Z,94523.00
2024-04-18T10:59:04.351Z,94521.00
2024-04-18T11:00:04.501Z,94519.00
2024-04-18T11:01:04.511Z,94517.00
2024-04-18T11:02:04.638Z,94516.00
2024-04-18T11:03:04.629Z,94518.00
2024-04-18T11:04:04.804Z,94517.00
2024-04-18T11:05:04.749Z,94517.00
2024-04-18T11:06:04.869Z,94519.00
2024-04-18T11:07:05.282Z,94518.00
2024-04-18T11:08:04.889Z,94516.00
2024-04-18T11:09:05.012Z,94518.00
2024-04-18T11:10:05.065Z,94517.00
2024-04-18T11:11:05.102Z,94520.00
2024-04-18T11:12:05.155Z,94518.00
2024-04-18T11:13:05.138Z,94520.00
2024-04-18T11:14:06.401Z,94521.00
2024-04-18T11:15:05.432Z,94520.00
2024-04-18T11:16:05.446Z,94520.00
2024-04-18T11:17:05.540Z,94520.00
2024-04-18T11:18:05.652Z,94518.00
2024-04-18T11:19:05.662Z,94518.00
2024-04-18T11:20:05.614Z,94517.00
2024-04-18T11:21:05.662Z,94519.00
2024-04-18T11:22:05.687Z,94519.00
2024-04-18T11:23:13.469Z,94519.00
2024-04-18T11:24:06.751Z,94518.00
2024-04-18T11:25:05.699Z,94517.00
2024-04-18T11:26:05.719Z,94515.00
2024-04-18T11:27:05.763Z,94516.00
2024-04-18T11:28:05.687Z,94515.00
2024-04-18T11:29:05.711Z,94511.00
2024-04-18T11:30:05.705Z,94508.00
2024-04-18T11:31:05.781Z,94512.00
2024-04-18T11:32:05.753Z,94510.00
2024-04-18T11:33:05.811Z,94508.00
2024-04-18T11:34:05.773Z,94510.00
2024-04-18T11:35:11.857Z,94512.00
2024-04-18T11:36:06.830Z,94512.00
2024-04-18T11:37:05.805Z,94507.00
2024-04-18T11:38:05.722Z,94511.00
2024-04-18T11:39:05.779Z,94505.00
2024-04-18T11:40:05.731Z,94509.00
2024-04-18T11:41:05.741Z,94508.00
2024-04-18T11:42:05.773Z,94507.00
2024-04-18T11:43:05.719Z,94507.00
2024-04-18T11:44:05.729Z,94503.00
2024-04-18T11:45:05.764Z,94502.00
2024-04-18T11:46:05.784Z,94502.00
2024-04-18T11:47:05.746Z,94502.00
2024-04-18T11:48:06.017Z,94505.00